Time;durP1;ratioP1;P1;durP2;ratioP2;P2;SDS_P1;SDS_P2;PMS_P1;PMS_P2;Temp;Humidity;BMP_temperature;BMP_pressure;BME280_temperature;BME280_humidity;BME280_pressure;Samples;Min_cycle;Max_cycle;Signal;HPM_P1;HPM_P2
2023/11/29 00:00:24;;;;;;;36.80;20.80;;;;;;;0.83;62.75;97647.44;234216;209;138908;-56
2023/11/29 00:05:47;;;;;;;35.90;20.50;;;;;;;0.77;62.54;97658.20;234289;212;138560;-56
2023/11/29 00:10:50;;;;;;;36.50;21.20;;;;;;;0.79;62.56;97671.70;234369;215;147637;-56
2023/11/29 00:15:53;;;;;;;39.40;22.30;;;;;;;0.79;62.11;97678.86;234137;215;138983;-56
2023/11/29 00:21:00;;;;;;;38.50;22.10;;;;;;;0.75;61.98;97685.83;234249;213;138008;-58
2023/11/29 00:26:03;;;;;;;37.00;21.80;;;;;;;0.72;61.85;97691.39;234297;216;149388;-58
2023/11/29 00:31:07;;;;;;;38.60;22.10;;;;;;;0.69;61.72;97710.37;234179;216;140293;-57
2023/11/29 00:36:10;;;;;;;40.30;22.90;;;;;;;0.67;61.57;97716.73;234275;215;137730;-58
2023/11/29 00:41:13;;;;;;;35.90;22.00;;;;;;;0.64;61.54;97719.98;234405;209;147459;-57
2023/11/29 00:46:16;;;;;;;37.00;20.90;;;;;;;0.64;61.30;97732.02;234214;215;138828;-58
2023/11/29 00:51:20;;;;;;;39.60;22.70;;;;;;;0.66;60.91;97738.25;234307;215;137153;-58
2023/11/29 00:56:23;;;;;;;39.30;23.00;;;;;;;0.63;61.09;97746.90;234246;215;147934;-59
2023/11/29 01:01:26;;;;;;;41.00;23.60;;;;;;;0.63;60.84;97752.82;234194;215;139695;-58
2023/11/29 01:06:30;;;;;;;40.30;22.50;;;;;;;0.60;60.72;97766.09;234251;216;140377;-58
2023/11/29 01:11:34;;;;;;;39.40;22.40;;;;;;;0.55;60.49;97774.14;234281;215;147639;-58
2023/11/29 01:16:37;;;;;;;38.90;22.10;;;;;;;0.45;60.61;97775.25;234339;216;138816;-57
2023/11/29 01:21:40;;;;;;;39.60;21.50;;;;;;;0.42;60.80;97779.38;234232;215;137609;-57
2023/11/29 01:26:44;;;;;;;37.60;21.40;;;;;;;0.36;60.61;97783.48;234203;216;147502;-58
2023/11/29 01:31:48;;;;;;;37.10;21.60;;;;;;;0.34;60.59;97782.02;234270;216;138931;-57
2023/11/29 01:36:51;;;;;;;36.50;21.00;;;;;;;0.36;60.70;97786.08;234285;213;137570;-57
2023/11/29 01:41:54;;;;;;;36.60;20.70;;;;;;;0.37;60.67;97788.66;234298;215;147345;-58
2023/11/29 01:46:57;;;;;;;32.00;19.00;;;;;;;0.39;60.58;97788.60;234387;215;138952;-55
2023/11/29 01:52:01;;;;;;;37.80;20.50;;;;;;;0.40;60.49;97789.42;234223;216;137990;-56
2023/11/29 01:57:04;;;;;;;35.10;19.50;;;;;;;0.39;60.06;97796.26;234275;215;147533;-59
2023/11/29 02:02:07;;;;;;;34.60;20.20;;;;;;;0.39;60.13;97799.59;234279;215;140033;-58
2023/11/29 02:07:12;;;;;;;35.50;21.20;;;;;;;0.39;60.24;97801.32;234255;215;138221;-58
2023/11/29 02:12:15;;;;;;;37.00;20.60;;;;;;;0.35;60.05;97797.83;234235;209;149381;-58
2023/11/29 02:17:18;;;;;;;36.60;20.20;;;;;;;0.33;60.15;97801.22;234406;215;140247;-58
2023/11/29 02:22:24;;;;;;;35.50;20.30;;;;;;;0.33;60.00;97804.71;234174;215;137215;-56
2023/11/29 02:27:29;;;;;;;36.90;21.00;;;;;;;0.36;59.89;97813.48;234178;216;148388;-57
2023/11/29 02:32:32;;;;;;;37.20;21.10;;;;;;;0.42;59.53;97812.02;234280;214;138968;-58
2023/11/29 02:37:35;;;;;;;36.10;20.90;;;;;;;0.38;59.43;97811.80;234158;216;137914;-56
2023/11/29 02:42:39;;;;;;;37.30;20.30;;;;;;;0.37;59.47;97816.04;234261;214;147270;-58
2023/11/29 02:47:42;;;;;;;34.60;19.80;;;;;;;0.38;59.54;97825.63;234256;215;138875;-57
2023/11/29 02:52:48;;;;;;;39.00;21.30;;;;;;;0.38;59.52;97827.01;234383;216;138674;-57
2023/11/29 02:57:51;;;;;;;38.90;21.90;;;;;;;0.35;59.80;97827.65;234245;215;147639;-57
2023/11/29 03:02:55;;;;;;;36.10;22.00;;;;;;;0.34;59.98;97833.09;234019;216;140732;-57
2023/11/29 03:07:58;;;;;;;41.80;23.90;;;;;;;0.36;60.05;97838.78;234221;216;138644;-58
2023/11/29 03:13:02;;;;;;;42.80;23.80;;;;;;;0.33;60.13;97843.61;234232;215;147418;-57
2023/11/29 03:18:05;;;;;;;42.10;22.50;;;;;;;0.31;60.21;97851.56;234188;215;139695;-57
2023/11/29 03:23:09;;;;;;;42.30;23.20;;;;;;;0.28;60.30;97852.02;234344;213;137667;-58
2023/11/29 03:28:12;;;;;;;42.50;24.70;;;;;;;0.28;60.53;97860.39;234260;216;147811;-57
2023/11/29 03:33:15;;;;;;;40.00;21.70;;;;;;;0.25;60.55;97864.52;234151;214;138962;-56
2023/11/29 03:38:18;;;;;;;41.00;22.10;;;;;;;0.24;60.42;97865.60;234298;216;137398;-58
2023/11/29 03:43:21;;;;;;;40.30;23.40;;;;;;;0.24;60.42;97869.07;234229;216;147847;-58
2023/11/29 03:48:24;;;;;;;40.80;22.20;;;;;;;0.21;60.31;97875.46;233825;216;139022;-57
2023/11/29 03:53:28;;;;;;;40.10;21.70;;;;;;;0.15;60.36;97877.98;234377;215;136545;-58
2023/11/29 03:58:31;;;;;;;39.90;22.30;;;;;;;0.12;60.55;97885.78;234357;215;148634;-57
2023/11/29 04:03:34;;;;;;;38.80;21.70;;;;;;;0.15;60.38;97891.75;234201;214;140021;-57
2023/11/29 04:08:37;;;;;;;37.80;21.50;;;;;;;0.13;60.27;97895.15;234253;215;137541;-57
2023/11/29 04:13:40;;;;;;;39.80;21.00;;;;;;;0.05;60.27;97902.27;234284;216;147388;-58
2023/11/29 04:18:44;;;;;;;36.80;21.60;;;;;;;0.06;60.31;97906.56;234261;215;140214;-57
2023/11/29 04:23:47;;;;;;;38.40;21.30;;;;;;;0.02;60.52;97914.23;234220;216;136741;-56
2023/11/29 04:28:50;;;;;;;37.60;21.10;;;;;;;-0.04;60.62;97924.04;234310;214;148158;-57
2023/11/29 04:33:53;;;;;;;40.30;22.40;;;;;;;-0.08;61.02;97923.48;234184;216;139073;-57
2023/11/29 04:38:57;;;;;;;39.00;21.40;;;;;;;-0.15;61.14;97932.46;234166;216;141688;-58
2023/11/29 04:44:00;;;;;;;44.60;22.50;;;;;;;-0.22;61.32;97937.46;234144;215;147318;-59
2023/11/29 04:49:05;;;;;;;46.20;24.50;;;;;;;-0.33;61.57;97943.55;234248;215;138689;-59
2023/11/29 04:54:08;;;;;;;43.70;23.80;;;;;;;-0.40;61.77;97949.04;234271;216;138595;-57
2023/11/29 04:59:11;;;;;;;43.30;21.90;;;;;;;-0.40;61.95;97955.69;233968;216;147385;-58
2023/11/29 05:04:14;;;;;;;45.80;25.00;;;;;;;-0.43;61.92;97960.66;234279;215;140817;-56
2023/11/29 05:09:17;;;;;;;44.30;23.50;;;;;;;-0.47;62.05;97962.55;234231;216;138670;-57
2023/11/29 05:14:20;;;;;;;39.40;23.00;;;;;;;-0.51;62.14;97959.70;234267;215;148976;-56
2023/11/29 05:19:24;;;;;;;45.50;23.90;;;;;;;-0.55;62.30;97962.65;234183;215;138837;-56
2023/11/29 05:24:27;;;;;;;46.00;24.90;;;;;;;-0.61;62.55;97970.70;234179;215;136945;-56
2023/11/29 05:29:30;;;;;;;44.90;25.00;;;;;;;-0.67;62.86;97969.50;234269;215;147614;-56
2023/11/29 05:34:35;;;;;;;48.00;24.70;;;;;;;-0.73;62.94;97972.31;234378;215;139308;-58
2023/11/29 05:39:39;;;;;;;44.50;25.40;;;;;;;-0.78;63.15;97981.37;234074;216;137273;-58
2023/11/29 05:44:42;;;;;;;47.60;25.80;;;;;;;-0.88;63.08;98000.14;234134;212;147366;-59
2023/11/29 05:49:45;;;;;;;45.90;24.30;;;;;;;-0.94;63.35;98011.84;234164;215;140087;-58
2023/11/29 05:54:48;;;;;;;52.40;25.60;;;;;;;-1.03;63.29;98024.49;234321;215;136824;-58
2023/11/29 05:59:51;;;;;;;44.60;23.90;;;;;;;-1.05;63.58;98029.61;234283;215;148024;-61
2023/11/29 06:04:55;;;;;;;43.00;24.10;;;;;;;-1.08;63.67;98038.39;234368;216;138903;-59
2023/11/29 06:09:59;;;;;;;45.70;23.90;;;;;;;-1.14;63.63;98042.41;234115;216;139314;-61
2023/11/29 06:15:04;;;;;;;50.40;25.60;;;;;;;-1.26;63.80;98046.61;234210;215;148132;-59
2023/11/29 06:20:11;;;;;;;49.20;24.60;;;;;;;-1.25;63.78;98050.76;234242;215;139508;-61
2023/11/29 06:25:15;;;;;;;42.80;24.00;;;;;;;-1.26;64.27;98057.23;234199;214;136852;-60
2023/11/29 06:30:18;;;;;;;84.50;49.60;;;;;;;-1.09;64.89;98070.46;234285;216;147587;-58
2023/11/29 06:35:22;;;;;;;219.70;156.80;;;;;;;-1.12;64.33;98085.16;234145;209;139324;-58
2023/11/29 06:40:27;;;;;;;53.30;28.60;;;;;;;-1.08;65.24;98086.29;234223;215;137757;-60
2023/11/29 06:45:30;;;;;;;45.10;25.00;;;;;;;-1.07;64.07;98088.67;234224;213;148314;-60
2023/11/29 06:50:33;;;;;;;43.00;22.80;;;;;;;-1.21;63.97;98094.67;234273;216;140220;-60
2023/11/29 06:55:37;;;;;;;40.70;22.80;;;;;;;-1.25;64.08;98102.60;234222;214;137869;-59
2023/11/29 07:00:40;;;;;;;39.80;23.20;;;;;;;-1.18;64.28;98125.54;234248;213;147663;-60
2023/11/29 07:05:43;;;;;;;41.60;22.30;;;;;;;-1.24;64.03;98129.38;234203;216;139451;-60
2023/11/29 07:10:46;;;;;;;41.50;21.70;;;;;;;-1.42;64.39;98126.08;234270;214;137976;-60
2023/11/29 07:15:55;;;;;;;38.50;20.40;;;;;;;-1.43;64.45;98124.87;234120;213;147720;-56
2023/11/29 07:20:59;;;;;;;69.00;38.50;;;;;;;-1.43;65.00;98138.98;234234;216;140883;-60
2023/11/29 07:26:02;;;;;;;38.80;21.50;;;;;;;-1.33;65.09;98141.13;234195;214;138499;-56
2023/11/29 07:31:09;;;;;;;39.80;21.70;;;;;;;-1.31;65.10;98142.98;234233;213;148110;-55
2023/11/29 07:36:13;;;;;;;40.60;22.00;;;;;;;-1.28;65.15;98134.52;234190;215;139264;-55
2023/11/29 07:41:17;;;;;;;37.70;20.80;;;;;;;-1.31;65.59;98141.60;234359;213;137553;-56
2023/11/29 07:46:21;;;;;;;37.40;19.90;;;;;;;-1.33;65.65;98146.68;234147;213;148760;-60
2023/11/29 07:51:24;;;;;;;35.00;20.10;;;;;;;-1.35;65.53;98145.34;234190;214;139335;-57
2023/11/29 07:56:27;;;;;;;37.80;23.00;;;;;;;-1.25;66.24;98152.89;234287;216;137331;-58
2023/11/29 08:01:31;;;;;;;42.80;22.10;;;;;;;-1.05;65.14;98167.63;234233;215;147406;-58
2023/11/29 08:06:34;;;;;;;39.20;21.40;;;;;;;-0.99;64.79;98157.00;234154;213;139996;-58
2023/11/29 08:11:39;;;;;;;42.30;22.20;;;;;;;-0.97;64.54;98159.02;234268;213;136991;-58
2023/11/29 08:16:42;;;;;;;41.90;23.30;;;;;;;-0.98;64.64;98167.61;234283;216;147514;-57
2023/11/29 08:21:45;;;;;;;43.40;23.60;;;;;;;-0.97;64.54;98164.59;234197;215;139834;-58
2023/11/29 08:26:48;;;;;;;104.40;65.70;;;;;;;-0.99;64.95;98165.70;234253;213;137763;-58
2023/11/29 08:31:51;;;;;;;48.10;26.60;;;;;;;-0.75;65.60;98166.03;234176;215;148127;-57
2023/11/29 08:36:56;;;;;;;42.60;23.90;;;;;;;-0.61;64.83;98171.85;234256;212;139720;-57
2023/11/29 08:41:59;;;;;;;40.50;21.60;;;;;;;-0.55;64.27;98168.19;234209;214;137551;-57
2023/11/29 08:47:03;;;;;;;37.10;20.20;;;;;;;-0.63;63.73;98168.45;234325;213;147812;-57
2023/11/29 08:52:08;;;;;;;35.50;19.70;;;;;;;-0.67;63.58;98168.39;234109;212;140830;-59
2023/11/29 08:57:11;;;;;;;33.60;19.20;;;;;;;-0.67;63.38;98172.41;234173;214;138024;-56
2023/11/29 09:02:14;;;;;;;32.90;17.90;;;;;;;-0.65;63.61;98172.18;234233;213;148252;-57
2023/11/29 09:07:18;;;;;;;30.20;18.00;;;;;;;-0.51;63.82;98169.64;234247;213;139246;-58
2023/11/29 09:12:22;;;;;;;34.60;18.80;;;;;;;-0.39;63.30;98167.87;234012;215;137733;-59
2023/11/29 09:17:26;;;;;;;42.80;24.00;;;;;;;-0.31;62.66;98169.67;234217;213;147248;-59
2023/11/29 09:22:29;;;;;;;36.80;20.30;;;;;;;-0.29;62.41;98171.38;234198;215;138903;-58
2023/11/29 09:27:33;;;;;;;33.70;18.80;;;;;;;-0.21;62.45;98163.10;234251;213;138000;-58
2023/11/29 09:32:36;;;;;;;32.10;18.10;;;;;;;-0.16;62.45;98167.63;234239;216;147571;-58
2023/11/29 09:37:39;;;;;;;29.80;17.10;;;;;;;-0.14;62.31;98170.88;234249;213;138896;-57
2023/11/29 09:42:43;;;;;;;33.00;17.30;;;;;;;-0.18;62.05;98170.85;234204;212;137057;-58
2023/11/29 09:47:46;;;;;;;31.10;17.60;;;;;;;-0.32;62.08;98165.02;234154;213;147539;-58
2023/11/29 09:52:52;;;;;;;32.30;17.20;;;;;;;-0.30;62.46;98156.41;234277;215;138760;-57
2023/11/29 09:57:58;;;;;;;31.90;17.20;;;;;;;-0.24;62.41;98170.15;234242;214;139151;-57
2023/11/29 10:03:13;;;;;;;29.80;16.80;;;;;;;-0.15;61.95;98173.88;234197;213;146566;-56
2023/11/29 10:08:19;;;;;;;31.70;17.40;;;;;;;-0.10;61.48;98172.30;234100;208;138662;-62
2023/11/29 10:13:22;;;;;;;34.20;19.00;;;;;;;-0.04;61.14;98171.27;234091;213;139222;-57
2023/11/29 10:18:25;;;;;;;33.00;17.30;;;;;;;0.05;60.73;98168.51;234182;213;148692;-56
2023/11/29 10:23:31;;;;;;;51.10;26.90;;;;;;;0.09;60.41;98168.36;234214;213;139385;-53
2023/11/29 10:28:34;;;;;;;;;;;;;;;0.66;64.60;98163.92;234302;214;137948;-57
2023/11/29 10:33:41;;;;;;;38.20;21.30;;;;;;;0.62;59.53;98165.46;234214;213;148876;-58
2023/11/29 10:39:22;;;;;;;40.80;22.30;;;;;;;0.47;59.39;98164.94;234147;212;140792;-57
2023/11/29 10:44:36;;;;;;;37.20;21.10;;;;;;;0.54;59.49;98165.94;234234;216;136771;-57
2023/11/29 10:49:48;;;;;;;38.70;21.40;;;;;;;0.60;58.80;98172.00;234193;213;147279;-57
2023/11/29 10:54:52;;;;;;;39.40;20.70;;;;;;;0.58;58.32;98174.34;234106;212;138907;-57
2023/11/29 11:00:05;;;;;;;32.00;18.80;;;;;;;0.57;58.22;98163.55;234239;216;136935;-58
2023/11/29 11:05:09;;;;;;;32.60;19.00;;;;;;;0.53;58.32;98159.34;234349;213;147216;-57
2023/11/29 11:10:23;;;;;;;30.90;18.30;;;;;;;0.51;58.02;98168.83;233988;209;138980;-57
2023/11/29 11:15:28;;;;;;;31.80;19.20;;;;;;;0.39;57.90;98171.17;234140;213;136881;-58
2023/11/29 11:20:52;;;;;;;37.80;18.30;;;;;;;0.29;58.47;98168.06;234115;215;148661;-58
2023/11/29 11:25:56;;;;;;;32.90;18.60;;;;;;;0.33;58.53;98167.90;234133;214;138931;-57
2023/11/29 11:31:14;;;;;;;30.90;18.20;;;;;;;0.42;58.35;98163.90;234182;213;136866;-55
2023/11/29 11:36:22;;;;;;;31.90;18.90;;;;;;;0.51;58.16;98162.02;234222;213;147430;-57
2023/11/29 11:41:26;;;;;;;34.00;18.70;;;;;;;0.65;58.21;98160.64;234220;209;138679;-57
2023/11/29 11:46:29;;;;;;;38.90;22.40;;;;;;;0.68;58.94;98160.00;234133;208;138557;-57
2023/11/29 11:51:33;;;;;;;36.90;21.00;;;;;;;0.89;58.01;98157.50;234116;215;148267;-57
2023/11/29 11:56:36;;;;;;;34.20;19.60;;;;;;;0.92;57.12;98153.90;234075;212;139241;-58
2023/11/29 12:01:39;;;;;;;35.00;20.20;;;;;;;0.83;57.45;98150.91;234252;213;137263;-59
2023/11/29 12:06:43;;;;;;;31.80;18.80;;;;;;;0.91;57.45;98154.26;234638;214;147651;-58
2023/11/29 12:11:46;;;;;;;34.50;20.20;;;;;;;0.99;57.39;98152.92;234539;212;138918;-59
2023/11/29 12:16:51;;;;;;;36.70;20.90;;;;;;;1.00;57.30;98147.48;234395;212;138847;-58
2023/11/29 12:21:55;;;;;;;35.30;19.70;;;;;;;1.02;56.95;98147.92;234466;212;147527;-54
2023/11/29 12:27:07;;;;;;;37.30;21.80;;;;;;;1.04;57.25;98151.70;234452;208;138735;-56
2023/11/29 12:32:11;;;;;;;36.70;19.20;;;;;;;1.20;57.04;98149.69;234365;213;137123;-56
2023/11/29 12:37:17;;;;;;;38.80;20.10;;;;;;;1.30;56.55;98149.66;234376;213;147974;-54
2023/11/29 12:42:20;;;;;;;35.00;20.40;;;;;;;1.36;56.58;98139.11;234405;213;138835;-56
2023/11/29 12:47:23;;;;;;;38.60;19.70;;;;;;;1.47;56.41;98137.41;234261;212;137809;-56
2023/11/29 12:52:27;;;;;;;33.50;19.50;;;;;;;1.48;56.25;98136.02;234551;212;147491;-56
2023/11/29 12:57:31;;;;;;;32.10;18.00;;;;;;;1.51;55.99;98137.11;234461;212;138871;-57
2023/11/29 13:02:34;;;;;;;35.60;18.40;;;;;;;1.46;55.67;98132.77;234007;212;137776;-56
2023/11/29 13:07:38;;;;;;;35.70;19.10;;;;;;;1.46;56.01;98129.09;234303;213;147401;-56
2023/11/29 13:12:41;;;;;;;31.70;19.00;;;;;;;1.53;55.80;98128.29;234256;208;138807;-57
2023/11/29 13:17:44;;;;;;;35.20;19.60;;;;;;;1.57;55.60;98134.77;234405;212;137963;-54
2023/11/29 13:22:49;;;;;;;37.10;20.70;;;;;;;1.62;55.83;98132.98;233912;213;148272;-56
2023/11/29 13:27:52;;;;;;;35.30;19.50;;;;;;;1.49;55.43;98129.50;233314;208;138842;-55
2023/11/29 13:32:56;;;;;;;31.60;17.80;;;;;;;1.44;55.64;98128.80;234358;213;137012;-56
2023/11/29 13:37:59;;;;;;;58.10;34.00;;;;;;;1.49;56.07;98136.65;234342;212;147289;-56
2023/11/29 13:43:02;;;;;;;38.10;19.80;;;;;;;1.55;55.45;98138.35;234349;208;139342;-56
2023/11/29 13:48:05;;;;;;;36.70;19.80;;;;;;;1.49;55.15;98133.48;234247;207;137773;-56
2023/11/29 13:53:09;;;;;;;35.30;20.10;;;;;;;1.44;55.25;98137.77;234135;213;147726;-54
2023/11/29 13:58:12;;;;;;;34.70;18.30;;;;;;;1.46;55.11;98138.35;234291;209;138768;-55
2023/11/29 14:03:15;;;;;;;38.00;20.60;;;;;;;1.42;54.82;98140.42;234388;212;137572;-56
2023/11/29 14:08:33;;;;;;;34.60;19.60;;;;;;;1.37;55.11;98139.59;234299;213;149047;-56
2023/11/29 14:13:36;;;;;;;39.10;20.60;;;;;;;1.28;55.10;98149.17;234245;215;138844;-55
2023/11/29 14:18:40;;;;;;;44.40;21.10;;;;;;;1.23;55.43;98155.33;234272;215;137986;-56
2023/11/29 14:23:43;;;;;;;40.10;21.80;;;;;;;1.15;55.63;98158.41;234433;208;147596;-57
2023/11/29 14:28:47;;;;;;;37.50;21.10;;;;;;;1.13;56.05;98160.98;234336;213;139342;-56
2023/11/29 14:33:50;;;;;;;38.80;21.00;;;;;;;1.08;56.35;98166.39;234348;212;136692;-56
2023/11/29 14:38:54;;;;;;;37.90;23.00;;;;;;;1.02;56.45;98167.47;234114;211;147488;-56
2023/11/29 14:43:57;;;;;;;41.50;22.40;;;;;;;0.95;56.61;98162.86;234363;213;139158;-56
2023/11/29 14:49:01;;;;;;;40.90;22.40;;;;;;;0.91;56.66;98168.93;234272;213;137505;-56
2023/11/29 14:54:04;;;;;;;39.80;22.80;;;;;;;0.83;56.93;98174.11;234242;214;147474;-56
2023/11/29 14:59:07;;;;;;;41.40;22.60;;;;;;;0.80;57.10;98171.61;234161;213;138930;-56
2023/11/29 15:04:10;;;;;;;38.60;23.00;;;;;;;0.77;57.16;98177.85;233941;213;137985;-57
2023/11/29 15:09:14;;;;;;;41.80;23.00;;;;;;;0.74;57.34;98179.36;234349;215;149455;-57
2023/11/29 15:14:19;;;;;;;44.70;24.30;;;;;;;0.67;57.38;98185.20;234378;213;139771;-57
2023/11/29 15:19:23;;;;;;;41.10;23.40;;;;;;;0.63;57.47;98186.36;234475;212;137953;-57
2023/11/29 15:24:26;;;;;;;43.90;24.20;;;;;;;0.57;58.08;98187.11;234375;213;147230;-58
2023/11/29 15:29:30;;;;;;;42.00;23.80;;;;;;;0.51;58.19;98189.61;234008;208;138874;-56
2023/11/29 15:34:36;;;;;;;43.50;24.60;;;;;;;0.46;58.33;98196.91;234426;213;138245;-56
2023/11/29 15:39:40;;;;;;;42.30;23.40;;;;;;;0.39;58.56;98202.23;234095;213;148466;-57
2023/11/29 15:44:45;;;;;;;43.40;24.70;;;;;;;0.27;59.00;98207.01;234255;213;138918;-57
2023/11/29 15:49:49;;;;;;;47.20;26.00;;;;;;;0.18;59.23;98209.91;234361;208;137130;-57
2023/11/29 15:54:52;;;;;;;46.70;25.50;;;;;;;0.11;59.40;98211.02;234414;212;148175;-56
2023/11/29 15:59:55;;;;;;;46.80;25.40;;;;;;;0.08;59.65;98211.31;234224;213;138640;-57
2023/11/29 16:04:59;;;;;;;45.60;24.70;;;;;;;0.13;59.63;98214.61;234263;213;136944;-57
2023/11/29 16:10:03;;;;;;;52.10;24.50;;;;;;;0.05;59.67;98215.23;234413;211;147905;-56
2023/11/29 16:15:07;;;;;;;46.30;25.20;;;;;;;-0.05;59.90;98219.77;234273;208;153716;-56
2023/11/29 16:20:11;;;;;;;50.80;24.70;;;;;;;-0.15;60.15;98222.52;234321;213;137022;-57
2023/11/29 16:25:14;;;;;;;42.70;23.70;;;;;;;-0.20;60.12;98226.88;234522;212;148114;-58
2023/11/29 16:30:17;;;;;;;45.80;24.60;;;;;;;-0.30;60.03;98232.75;234368;213;139332;-56
2023/11/29 16:35:22;;;;;;;45.70;25.30;;;;;;;-0.46;60.03;98232.55;234475;213;140555;-57
2023/11/29 16:40:26;;;;;;;46.90;27.30;;;;;;;-0.59;60.33;98235.56;234401;215;147247;-57
2023/11/29 16:45:29;;;;;;;49.70;26.40;;;;;;;-0.70;60.61;98233.95;234391;213;139009;-57
2023/11/29 16:50:34;;;;;;;56.80;27.60;;;;;;;-0.73;60.75;98234.07;234333;213;137543;-57
2023/11/29 16:55:37;;;;;;;50.30;27.10;;;;;;;-0.79;60.89;98242.25;234422;208;147685;-57
2023/11/29 17:00:42;;;;;;;49.80;26.60;;;;;;;-0.85;61.18;98248.70;234342;213;140081;-57
2023/11/29 17:05:45;;;;;;;54.70;26.30;;;;;;;-0.87;61.00;98247.02;234391;213;138460;-54
2023/11/29 17:10:50;;;;;;;50.70;27.20;;;;;;;-0.98;61.31;98253.23;234402;207;148129;-58
2023/11/29 17:15:54;;;;;;;661.00;399.90;;;;;;;-1.06;61.57;98255.89;234377;207;139449;-57
2023/11/29 17:20:57;;;;;;;68.90;36.10;;;;;;;-0.99;62.46;98252.05;234430;213;139764;-57
2023/11/29 17:26:02;;;;;;;51.20;29.00;;;;;;;-1.01;61.59;98248.45;234352;213;147481;-56
2023/11/29 17:31:06;;;;;;;57.70;29.70;;;;;;;-1.14;61.57;98249.70;234350;213;138694;-56
2023/11/29 17:36:10;;;;;;;59.00;30.60;;;;;;;-1.24;61.50;98249.27;234353;212;137841;-57
2023/11/29 17:41:13;;;;;;;64.10;32.00;;;;;;;-1.29;61.58;98244.52;234463;212;148974;-56
2023/11/29 17:46:16;;;;;;;61.00;33.80;;;;;;;-1.34;61.22;98243.80;234378;213;140296;-55
2023/11/29 17:51:19;;;;;;;58.10;32.50;;;;;;;-1.44;60.97;98245.10;234415;213;137518;-58
2023/11/29 17:56:23;;;;;;;67.20;34.50;;;;;;;-1.60;60.97;98245.55;234367;208;147547;-56
2023/11/29 18:01:44;;;;;;;59.90;32.70;;;;;;;-1.74;61.08;98239.81;234142;212;139025;-58
2023/11/29 18:06:49;;;;;;;70.00;35.40;;;;;;;-1.85;61.20;98243.03;234422;212;137461;-57
2023/11/29 18:11:52;;;;;;;67.90;35.30;;;;;;;-1.91;61.30;98245.63;234546;207;148323;-57
2023/11/29 18:16:55;;;;;;;71.50;36.40;;;;;;;-1.93;61.36;98247.59;234479;209;140896;-59
2023/11/29 18:21:58;;;;;;;99.10;52.10;;;;;;;-1.99;62.15;98244.24;234468;211;137642;-59
2023/11/29 18:27:02;;;;;;;79.80;40.00;;;;;;;-1.97;61.55;98242.29;234462;215;147636;-60
2023/11/29 18:32:06;;;;;;;79.70;41.20;;;;;;;-2.06;61.37;98243.20;234385;211;139598;-59
2023/11/29 18:37:10;;;;;;;72.70;39.50;;;;;;;-2.10;61.38;98252.19;234275;212;138274;-61
2023/11/29 18:42:14;;;;;;;74.50;39.50;;;;;;;-2.21;61.34;98248.77;234123;207;149974;-61
2023/11/29 18:47:17;;;;;;;80.60;40.20;;;;;;;-2.26;61.53;98243.34;234065;213;138975;-61
2023/11/29 18:52:20;;;;;;;81.70;41.40;;;;;;;-2.29;61.28;98240.81;234535;211;138139;-62
2023/11/29 18:57:25;;;;;;;82.30;41.00;;;;;;;-2.34;61.46;98240.57;234367;212;147564;-62
2023/11/29 19:02:30;;;;;;;79.80;41.20;;;;;;;-2.33;61.80;98239.34;233961;208;138984;-61
2023/11/29 19:07:33;;;;;;;72.20;38.30;;;;;;;-2.31;61.72;98235.65;234260;209;138299;-61
2023/11/29 19:12:37;;;;;;;78.60;38.40;;;;;;;-2.28;63.11;98232.44;234279;213;147784;-62
2023/11/29 19:17:40;;;;;;;72.70;37.00;;;;;;;-2.18;62.98;98226.62;234115;212;139173;-61
2023/11/29 19:22:44;;;;;;;66.30;34.10;;;;;;;-2.06;63.82;98225.83;234470;209;138521;-62
2023/11/29 19:27:47;;;;;;;67.80;36.00;;;;;;;-1.96;63.52;98220.01;234308;213;148105;-61
2023/11/29 19:32:51;;;;;;;70.10;37.40;;;;;;;-1.91;63.92;98219.21;234342;213;138869;-62
2023/11/29 19:37:54;;;;;;;71.80;36.40;;;;;;;-1.90;63.70;98218.48;234341;213;137108;-62
2023/11/29 19:42:57;;;;;;;70.80;36.60;;;;;;;-1.89;64.00;98213.76;234420;212;148686;-60
2023/11/29 19:48:02;;;;;;;67.60;36.40;;;;;;;-1.85;63.80;98219.06;234326;215;141781;-62
2023/11/29 19:53:08;;;;;;;68.10;34.50;;;;;;;-1.85;63.35;98212.29;234463;213;138031;-61
2023/11/29 19:58:12;;;;;;;80.20;41.90;;;;;;;-1.92;63.27;98209.48;234381;212;147253;-62
2023/11/29 20:03:32;;;;;;;75.20;40.00;;;;;;;-1.99;62.74;98209.48;234328;213;139423;-61
2023/11/29 20:08:36;;;;;;;74.50;39.80;;;;;;;-2.04;62.16;98212.23;234402;213;138029;-61
2023/11/29 20:13:39;;;;;;;87.20;41.00;;;;;;;-2.17;61.51;98217.06;234395;213;147811;-62
2023/11/29 20:18:42;;;;;;;92.70;47.00;;;;;;;-2.22;62.43;98214.57;234341;213;139493;-62
2023/11/29 20:23:47;;;;;;;84.80;43.90;;;;;;;-2.26;61.77;98205.98;234348;212;138274;-61
2023/11/29 20:28:50;;;;;;;83.20;40.90;;;;;;;-2.38;61.57;98201.41;234507;208;148013;-61
2023/11/29 20:33:54;;;;;;;80.20;41.30;;;;;;;-2.50;61.69;98197.52;234004;208;139555;-58
2023/11/29 20:38:57;;;;;;;86.70;43.10;;;;;;;-2.57;61.76;98193.35;234314;212;137746;-59
2023/11/29 20:44:00;;;;;;;220.80;138.90;;;;;;;-2.54;63.23;98194.67;234217;209;147681;-60
2023/11/29 20:49:04;;;;;;;86.80;44.90;;;;;;;-2.39;63.80;98190.48;234227;213;139442;-58
2023/11/29 20:54:07;;;;;;;87.70;42.90;;;;;;;-2.48;61.95;98187.06;234361;213;138008;-58
2023/11/29 20:59:12;;;;;;;88.80;44.60;;;;;;;-2.50;65.59;98195.79;234387;215;147693;-58
2023/11/29 21:04:15;;;;;;;191.20;104.10;;;;;;;-2.10;63.94;98187.19;234255;213;140192;-58
2023/11/29 21:09:18;;;;;;;92.40;46.40;;;;;;;-2.23;62.54;98181.76;234323;213;139794;-57
2023/11/29 21:14:21;;;;;;;91.20;45.20;;;;;;;-2.42;61.80;98179.45;234347;208;148238;-58
2023/11/29 21:19:24;;;;;;;87.30;43.50;;;;;;;-2.55;61.87;98179.58;234303;214;140657;-58
2023/11/29 21:24:28;;;;;;;93.30;45.10;;;;;;;-2.65;62.11;98185.36;234338;208;138170;-58
2023/11/29 21:29:31;;;;;;;90.30;45.20;;;;;;;-2.72;62.22;98179.80;234528;212;146662;-58
2023/11/29 21:34:34;;;;;;;89.90;44.60;;;;;;;-2.74;62.24;98180.89;234014;209;139470;-58
2023/11/29 21:39:37;;;;;;;93.10;45.90;;;;;;;-2.79;62.08;98186.22;234343;214;138721;-56
2023/11/29 21:44:41;;;;;;;87.60;44.10;;;;;;;-2.79;62.59;98190.02;234407;213;146736;-59
2023/11/29 21:49:44;;;;;;;91.70;45.70;;;;;;;-2.77;62.53;98187.73;234313;215;140300;-58
2023/11/29 21:54:48;;;;;;;95.30;45.40;;;;;;;-2.78;62.51;98176.48;234283;215;138271;-57
2023/11/29 21:59:51;;;;;;;95.70;47.20;;;;;;;-2.81;62.20;98183.14;234341;214;147598;-58
2023/11/29 22:04:54;;;;;;;89.80;46.30;;;;;;;-2.87;62.20;98173.55;234434;215;140591;-58
2023/11/29 22:09:57;;;;;;;107.30;52.20;;;;;;;-2.94;61.83;98172.83;234214;213;138323;-58
2023/11/29 22:15:01;;;;;;;106.10;50.10;;;;;;;-2.99;61.64;98171.21;234231;212;148133;-60
2023/11/29 22:20:04;;;;;;;112.40;52.90;;;;;;;-3.05;61.59;98166.99;234177;213;139056;-59
2023/11/29 22:25:08;;;;;;;106.90;52.60;;;;;;;-3.09;61.26;98159.45;234208;213;138558;-57
2023/11/29 22:30:11;;;;;;;105.60;50.20;;;;;;;-3.15;61.34;98155.75;234197;213;148356;-57
2023/11/29 22:35:16;;;;;;;100.40;49.70;;;;;;;-3.17;61.61;98153.38;234316;213;139147;-58
2023/11/29 22:40:21;;;;;;;107.50;51.40;;;;;;;-3.15;61.74;98151.61;234200;214;141220;-57
2023/11/29 22:45:24;;;;;;;99.80;49.30;;;;;;;-3.14;61.96;98156.26;234211;213;148664;-58
2023/11/29 22:50:27;;;;;;;103.00;50.40;;;;;;;-3.10;62.33;98161.19;234160;213;139656;-55
2023/11/29 22:55:30;;;;;;;108.00;51.70;;;;;;;-3.02;62.34;98162.43;234047;214;141117;-58
2023/11/29 23:00:33;;;;;;;103.90;50.90;;;;;;;-2.99;62.33;98162.02;234229;209;148725;-59
2023/11/29 23:05:37;;;;;;;106.40;50.60;;;;;;;-2.96;62.20;98160.90;234122;215;139799;-59